• Join FlightAware (Why Join?)
  • Login
  • US Flag 
05:27AM EDT


 

Airport Tracker/Info


-or-


 

Live Flight TrackerFlight Track Log ✈ DAL883 ✈ 20-Aug-2013 ✈ KLAX - KMCO

Flight Track Log - Related Links

Times and Time Zones

All times are in EDT time to prevent confusion due to time zone crossing. See the DAL883 flight status page for this flight to view local times or setup timezone preferences in your user account.

Time Position Orientation Groundspeed Altitude Reporting Facility
EDT Latitude Longitude Course Direction KTS MPH feet Rate Location/Type
02:30AM 33.9311 -118.4511 90° East 185 213 1,700  Level Los Angeles Center
02:31AM 33.8886 -118.5114 230° Southwest 254 292 2,900 1,920 Climbing Los Angeles Center
02:32AM 33.7583 -118.6110 132° Southeast  Level FlightAware Approximate
02:32AM 33.8172 -118.5178 184° South 258 297 5,600  Level Los Angeles Center
02:33AM 33.6795 -118.4935 101° East  Level FlightAware Approximate
02:33AM 33.7450 -118.5125 177° South 264 304 7,900  Level Los Angeles Center
02:34AM 33.6394 -118.3485 116° Southeast  Level FlightAware Approximate
02:34AM 33.6986 -118.4408 128° Southeast 278 320 10,000  Level Los Angeles Center
02:35AM 33.6333 -118.1962 90° East  Level FlightAware Approximate
02:35AM 33.6453 -118.3408 123° Southeast 299 344 11,500  Level Los Angeles Center
02:36AM 33.6442 -118.2072 91° East 338 389 14,000 1,860 Climbing Los Angeles Center
02:37AM 33.6444 -118.0653 90° East 353 406 15,300 1,140 Climbing Los Angeles Center
02:38AM 33.6447 -117.9300 90° East 398 458 16,300 1,200 Climbing Los Angeles Center
02:39AM 33.6436 -117.7892 91° East 419 482 17,800 1,320 Climbing Los Angeles Center
02:40AM 33.6428 -117.6475 90° East 426 490 19,000 1,140 Climbing Los Angeles Center
02:41AM 33.6447 -117.4997 89° East 439 505 20,100 1,140 Climbing Los Angeles Center
02:42AM 33.6486 -117.3475 88° East 452 520 21,400 1,140 Climbing Los Angeles Center
02:43AM 33.6508 -117.1958 89° East 456 525 22,500 1,080 Climbing Los Angeles Center
02:44AM 33.6525 -117.0406 89° East 462 532 23,600 1,020 Climbing Los Angeles Center
02:45AM 33.6556 -116.8836 89° East 468 539 24,600 840 Climbing Los Angeles Center
02:46AM 33.6561 -116.7181 90° East 477 549 25,300 720 Climbing Los Angeles Center
02:47AM 33.6575 -116.5539 89° East 488 562 26,100 780 Climbing Los Angeles Center
02:48AM 33.6589 -116.3894 89° East 491 565 26,900 780 Climbing Los Angeles Center
02:49AM 33.6603 -116.2242 89° East 495 570 27,700 780 Climbing Los Angeles Center
02:50AM 33.6614 -116.0583 89° East 496 571 28,500 840 Climbing Los Angeles Center
02:51AM 33.6617 -115.8947 90° East 490 564 29,500 1,020 Climbing Los Angeles Center
02:52AM 33.6633 -115.7339 89° East 483 556 30,600 900 Climbing Los Angeles Center
02:53AM 33.6647 -115.5742 89° East 478 550 31,400 780 Climbing Los Angeles Center
02:54AM 33.6633 -115.4131 91° East 481 554 32,200 720 Climbing Los Angeles Center
02:55AM 33.6633 -115.2567 90° East 472 543 32,900 300 Climbing Los Angeles Center
02:56AM 33.6633 -115.0989 90° East 470 541 32,900  Level Los Angeles Center
02:57AM 33.6636 -114.9422 90° East 470 541 33,000  Climbing Los Angeles Center
02:58AM 33.6622 -114.7864 91° East 469 540 32,900 -60 Descending Los Angeles Center
02:59AM 33.6631 -114.6314 90° East 467 537 32,900  Level Los Angeles Center
03:00AM 33.6611 -114.4758 91° East 467 537 33,000  Climbing Los Angeles Center
03:01AM 33.6600 -114.3203 90° East 467 537 32,900 -120 Descending Los Angeles Center
03:02AM 33.6628 -114.2319 88° East 467 537 32,900 60 Level Albuquerque Center
03:03AM 33.6611 -114.0736 91° East 468 539 33,000 60 Climbing Albuquerque Center
03:04AM 33.6578 -113.9150 91° East 474 545 33,100  Climbing Albuquerque Center
03:05AM 33.6567 -113.7586 90° East 472 543 33,000 -60 Descending Albuquerque Center
03:06AM 33.6508 -113.6039 93° East 470 541 33,000  Level Albuquerque Center
03:07AM 33.6478 -113.4506 91° East 466 536 33,000  Level Albuquerque Center
03:08AM 33.6467 -113.3017 90° East 457 526 33,000  Level Albuquerque Center
03:09AM 33.6478 -113.1519 89° East 453 521 33,000  Level Albuquerque Center
03:10AM 33.6456 -113.0000 91° East 455 524 33,100 -60 Climbing Albuquerque Center
03:11AM 33.6417 -112.8472 92° East 453 521 32,900 -120 Descending Albuquerque Center
03:12AM 33.6386 -112.6975 91° East 450 518 32,900  Level Albuquerque Center
03:13AM 33.6356 -112.5228 91° East 447 514 33,000  Climbing Albuquerque Center
03:14AM 33.6319 -112.3714 92° East 455 524 33,000  Level Albuquerque Center
03:15AM 33.6278 -112.2153 92° East 468 539 33,000  Level Albuquerque Center
03:16AM 33.6228 -112.0619 92° East 468 539 33,000  Level Albuquerque Center
03:17AM 33.6194 -111.9094 91° East 465 535 33,000  Level Albuquerque Center
03:18AM 33.6153 -111.7592 92° East 459 528 33,000  Level Albuquerque Center
03:19AM 33.6119 -111.6100 91° East 455 524 33,000  Level Albuquerque Center
03:20AM 33.6064 -111.4606 93° East 453 521 33,000  Level Albuquerque Center
03:21AM 33.6025 -111.3119 92° East 449 517 33,000  Level Albuquerque Center
03:22AM 33.5978 -111.1636 92° East 448 516 33,000  Level Albuquerque Center
03:23AM 33.5928 -111.0150 92° East 449 517 33,000  Level Albuquerque Center
03:24AM 33.5883 -110.8653 92° East 451 519 33,000  Level Albuquerque Center
03:25AM 33.5822 -110.7133 93° East 455 524 33,100  Climbing Albuquerque Center
03:26AM 33.5769 -110.5611 92° East 458 527 33,000 -60 Descending Albuquerque Center
03:27AM 33.5711 -110.4089 93° East 459 528 33,000  Level Albuquerque Center
03:28AM 33.5644 -110.2381 93° East 459 528 33,000  Level Albuquerque Center
03:29AM 33.5581 -110.0856 93° East 459 528 33,000  Level Albuquerque Center
03:30AM 33.5517 -109.9322 93° East 462 532 33,000  Level Albuquerque Center
03:31AM 33.5447 -109.7778 93° East 462 532 33,000  Level Albuquerque Center
03:32AM 33.5381 -109.6244 93° East 461 531 33,000  Level Albuquerque Center
03:33AM 33.5303 -109.4706 93° East 462 532 33,000  Level Albuquerque Center
03:34AM 33.5239 -109.3114 93° East 471 542 33,000  Level Albuquerque Center
03:35AM 33.5153 -109.1517 94° East 476 548 33,000  Level Albuquerque Center
03:36AM 33.5078 -108.9928 93° East 475 547 33,000  Level Albuquerque Center
03:37AM 33.4992 -108.8339 94° East 476 548 33,000  Level Albuquerque Center
03:38AM 33.4911 -108.6767 93° East 472 543 33,000  Level Albuquerque Center
03:39AM 33.4825 -108.5192 94° East 472 543 33,000  Level Albuquerque Center
03:40AM 33.4731 -108.3631 94° East 470 541 33,000  Level Albuquerque Center
03:41AM 33.4642 -108.2056 94° East 471 542 33,000  Level Albuquerque Center
03:42AM 33.4569 -108.0669 94° East 476 548 33,000  Level Albuquerque Center
03:43AM 33.4472 -107.9106 94° East 473 544 33,000  Level Albuquerque Center
03:44AM 33.4375 -107.7539 94° East 472 543 33,000  Level Albuquerque Center
03:45AM 33.4281 -107.5975 94° East 472 543 33,000 -60 Level Albuquerque Center
03:46AM 33.4178 -107.4419 94° East 469 540 32,900 -60 Descending Albuquerque Center
03:47AM 33.4078 -107.2878 94° East 464 534 32,900  Level Albuquerque Center
03:48AM 33.3981 -107.1342 94° East 464 534 32,900  Level Albuquerque Center
03:49AM 33.3883 -106.9822 94° East 460 529 33,000  Climbing Albuquerque Center
03:50AM 33.3775 -106.8264 95° East 464 534 32,900  Descending Albuquerque Center
03:51AM 33.3667 -106.6719 95° East 466 536 33,000  Climbing Albuquerque Center
03:52AM 33.3561 -106.5167 95° East 466 536 33,000  Level Albuquerque Center
03:53AM 33.3444 -106.3617 95° East 467 537 33,000  Level Albuquerque Center
03:54AM 33.3336 -106.2072 95° East 467 537 33,000 -60 Level Albuquerque Center
03:55AM 33.3219 -106.0531 95° East 466 536 32,900  Descending Albuquerque Center
03:56AM 33.3108 -105.8992 95° East 465 535 33,000  Climbing Albuquerque Center
03:57AM 33.2997 -105.7483 95° East 459 528 33,000  Level Albuquerque Center
03:58AM 33.2869 -105.5814 95° East 458 527 33,000  Level Albuquerque Center
03:59AM 33.2733 -105.4300 96° East 459 528 33,000  Level Albuquerque Center
04:00AM 33.2614 -105.2803 95° East 456 525 33,000  Level Albuquerque Center
04:01AM 33.2481 -105.1303 96° East 456 525 33,000  Level Albuquerque Center
04:02AM 33.2353 -104.9697 95° East 454 522 33,000  Level Albuquerque Center
04:03AM 33.2231 -104.8200 96° East 455 524 33,000  Level Albuquerque Center
04:04AM 33.2092 -104.6717 96° East 454 522 33,000  Level Albuquerque Center
04:05AM 33.1942 -104.5219 97° East 462 532 33,000  Level Albuquerque Center
04:06AM 33.1858 -104.3744 94° East 452 520 33,000  Level Albuquerque Center
04:07AM 33.1736 -104.2275 96° East 449 517 33,000  Level Albuquerque Center
04:08AM 33.1608 -104.0797 96° East 450 518 33,000  Level Albuquerque Center
04:09AM 33.1481 -103.9308 96° East 453 521 33,000  Level Albuquerque Center
04:10AM 33.1336 -103.7836 97° East 450 518 33,000  Level Albuquerque Center
04:11AM 33.1222 -103.6558 96° East 446 513 33,000  Level Albuquerque Center
04:12AM 33.1083 -103.5078 96° East 446 513 33,000  Level Albuquerque Center
04:13AM 33.0939 -103.3597 97° East 448 516 33,000  Level Albuquerque Center
04:14AM 33.0797 -103.2117 96° East 449 517 33,000  Level Albuquerque Center
04:15AM 33.0644 -103.0633 97° East 450 518 33,000  Level Albuquerque Center
04:16AM 33.0503 -102.9139 96° East 451 519 33,000  Level Albuquerque Center
04:17AM 33.0347 -102.7669 97° East 450 518 33,000  Level Albuquerque Center
04:18AM 33.0203 -102.6156 96° East 453 521 33,000  Level Albuquerque Center
04:19AM 33.0044 -102.4658 97° East 453 521 33,000  Level Albuquerque Center
04:21AM 32.9783 -102.2422 98° East 458 527 33,000  Level Fort Worth Center
04:22AM 32.9636 -102.0803 96° East 452 520 33,000  Level Fort Worth Center
04:23AM 32.9497 -101.9461 97° East 452 520 33,000  Level Fort Worth Center
04:24AM 32.9322 -101.7942 98° East 452 520 33,000  Level Fort Worth Center
04:25AM 32.9144 -101.6425 98° East 452 520 33,000  Level Fort Worth Center
04:26AM 32.9003 -101.4983 97° East 447 514 33,000  Level Fort Worth Center
04:27AM 32.8822 -101.3514 98° East 447 514 33,000  Level Fort Worth Center
04:28AM 32.8658 -101.2025 97° East 447 514 33,000  Level Fort Worth Center
04:29AM 32.8494 -101.0533 97° East 447 514 33,000  Level Fort Worth Center
04:30AM 32.8306 -100.9067 99° East 447 514 33,000  Level Fort Worth Center
04:31AM 32.8139 -100.7578 98° East 447 514 33,000  Level Fort Worth Center
04:32AM 32.7967 -100.6089 98° East 452 520 33,000  Level Fort Worth Center
04:33AM 32.7775 -100.4575 99° East 452 520 33,000  Level Fort Worth Center
04:34AM 32.7583 -100.2961 98° East 452 520 33,000  Level Fort Worth Center
04:35AM 32.7408 -100.1450 98° East 452 520 33,000  Level Fort Worth Center
04:36AM 32.7267 -100.0286 98° East 452 520 33,000  Level Fort Worth Center
04:37AM 32.7031 -99.8550 99° East 464 534 33,000  Level Fort Worth Center
04:38AM 32.6831 -99.6964 98° East 472 543 33,000  Level Fort Worth Center
04:39AM 32.6650 -99.5456 98° East 472 543 33,000  Level Fort Worth Center
04:40AM 32.6464 -99.3969 98° East 466 536 33,000  Level Fort Worth Center
04:41AM 32.6258 -99.2436 99° East 466 536 33,000  Level Fort Worth Center
04:42AM 32.6050 -99.0953 99° East 466 536 33,000  Level Fort Worth Center
04:43AM 32.5861 -98.9419 98° East 466 536 33,000  Level Fort Worth Center
04:44AM 32.5647 -98.7939 100° East 466 536 33,000  Level Fort Worth Center
04:45AM 32.5456 -98.6431 99° East 466 536 33,000  Level Fort Worth Center
04:46AM 32.5261 -98.4878 98° East 466 536 33,000  Level Fort Worth Center
04:47AM 32.5022 -98.3247 100° East 466 536 33,000  Level Fort Worth Center
04:48AM 32.4803 -98.1669 99° East 471 542 33,000  Level Fort Worth Center
04:49AM 32.4583 -98.0117 99° East 471 542 33,000  Level Fort Worth Center
04:50AM 32.4381 -97.8564 99° East 477 549 33,000  Level Fort Worth Center
04:51AM 32.4133 -97.7014 101° East 477 549 33,000  Level Fort Worth Center
04:52AM 32.3928 -97.5586 100° East 483 556 33,000  Level Fort Worth Center
04:53AM 32.3700 -97.4036 100° East 483 556 33,000  Level Fort Worth Center
04:54AM 32.3469 -97.2436 100° East 483 556 33,000  Level Fort Worth Center
04:55AM 32.3256 -97.0864 99° East 483 556 33,000  Level Fort Worth Center
04:56AM 32.3022 -96.9317 100° East 483 556 33,000  Level Fort Worth Center
04:57AM 32.2786 -96.7744 100° East 483 556 33,000  Level Fort Worth Center
04:58AM 32.2547 -96.6200 100° East 483 556 33,000  Level Fort Worth Center
04:59AM 32.2306 -96.4653 100° East 483 556 33,000  Level Fort Worth Center
05:00AM 32.2064 -96.3108 100° East 483 556 33,000  Level Fort Worth Center
05:01AM 32.1842 -96.1567 100° East 483 556 33,000  Level Fort Worth Center
05:02AM 32.1575 -96.0022 101° East 483 556 33,000  Level Fort Worth Center
05:03AM 32.1328 -95.8458 101° East 483 556 33,000  Level Fort Worth Center
05:04AM 32.1097 -95.6917 100° East 483 556 33,000  Level Fort Worth Center
05:05AM 32.0844 -95.5278 100° East 478 550 33,000  Level Fort Worth Center
05:06AM 32.0611 -95.3764 100° East 473 544 33,000  Level Fort Worth Center
05:07AM 32.0336 -95.2200 102° East 473 544 33,000  Level Fort Worth Center
05:08AM 32.0097 -95.0639 100° East 478 550 33,000  Level Fort Worth Center
05:09AM 31.9861 -94.9125 100° East 478 550 33,000  Level Fort Worth Center
05:10AM 31.9600 -94.7567 101° East 478 550 33,000  Level Fort Worth Center
05:11AM 31.9336 -94.6031 101° East 483 556 33,000  Level Fort Worth Center
05:12AM 31.9072 -94.4475 101° East 483 556 33,000  Level Fort Worth Center
05:13AM 31.8803 -94.2917 101° East 483 556 33,000  Level Fort Worth Center
05:14AM 31.8533 -94.1431 102° East 480 552 33,000  Level Houston Center
05:15AM 31.8275 -93.9878 101° East 483 556 33,000  Level Houston Center
05:16AM 31.8000 -93.8342 102° East 480 552 33,000  Level Houston Center
05:17AM 31.7706 -93.6678 102° East 481 554 33,000  Level Houston Center
05:18AM 31.7450 -93.5258 102° East 483 556 33,000  Level Houston Center
05:19AM 31.7175 -93.3725 102° East 481 554 33,000  Level Houston Center
05:20AM 31.6897 -93.2150 102° East 477 549 33,000  Level Houston Center
05:21AM 31.6617 -93.0608 102° East 480 552 33,000  Level Houston Center
05:22AM 31.6336 -92.9083 102° East 479 551 33,000  Level Houston Center
05:23AM 31.6061 -92.7564 102° East 476 548 33,000 -60 Level Houston Center
05:24AM 31.5786 -92.6039 102° East 476 548 32,900 -60 Descending Houston Center
05:25AM 31.5497 -92.4506 102° East 480 552 32,900  Level Houston Center
05:26AM 31.5197 -92.2978 103° East 482 555 32,900  Level Houston Center
05:27AM 31.4906 -92.1467 103° East 478 550 33,000  Climbing Houston Center
05:28AM 31.4611 -91.9911 102° East 480 552 33,000  Level Houston Center
05:29AM 31.4322 -91.8383 102° East 481 554 33,000  Level Houston Center
05:30AM 31.4025 -91.6869 103° East 477 549 33,000  Level Houston Center
05:31AM 31.3733 -91.5350 103° East 479 551 33,000  Level Houston Center
05:32AM 31.3428 -91.3831 103° East 480 552 33,000  Level Houston Center
05:33AM 31.3133 -91.2331 103° East 476 548 33,000 -60 Level Houston Center
05:34AM 31.2806 -91.0683 103° East 476 548 32,900 -60 Descending Houston Center
05:35AM 31.2494 -90.9164 103° East 480 552 32,900  Level Houston Center
05:36AM 31.2183 -90.7658 104° East 479 551 33,000  Climbing Houston Center
05:37AM 31.1883 -90.6136 103° East 480 552 33,000  Level Houston Center
05:38AM 31.1578 -90.4625 103° East 479 551 33,000 -60 Level Houston Center
05:39AM 31.1261 -90.3108 104° East 481 554 32,900  Descending Houston Center
05:40AM 31.0964 -90.1594 103° East 479 551 33,000  Climbing Houston Center
05:41AM 31.0644 -90.0089 104° East 478 550 33,000 -60 Level Houston Center
05:42AM 31.0333 -89.8581 103° East 477 549 32,900 -60 Descending Houston Center
05:43AM 31.0019 -89.7069 104° East 478 550 32,900  Level Houston Center
05:44AM 30.9692 -89.5561 104° East 478 550 33,000  Climbing Houston Center
05:45AM 30.9369 -89.4056 104° East 477 549 33,000 -60 Level Houston Center
05:46AM 30.9050 -89.2553 104° East 477 549 32,900  Descending Houston Center
05:47AM 30.8711 -89.1022 104° East 483 556 33,000  Climbing Houston Center
05:48AM 30.8381 -88.9519 104° East 479 551 33,000  Level Houston Center
05:49AM 30.8069 -88.8153 105° East 478 550 33,000  Level Houston Center
05:50AM 30.7750 -88.6681 104° East 474 545 33,000 -60 Level Houston Center
05:51AM 30.7392 -88.5058 104° East 475 547 32,900  Descending Houston Center
05:52AM 30.7067 -88.3575 104° East 474 545 33,000  Climbing Houston Center
05:53AM 30.6775 -88.2286 105° East 474 545 33,000  Level Houston Center
05:54AM 30.6394 -88.0536 104° East 472 543 33,000  Level Houston Center
05:55AM 30.6069 -87.9069 104° East 472 543 33,000  Level Houston Center
05:56AM 30.5739 -87.7617 105° East 470 541 33,000  Level Houston Center
05:57AM 30.5403 -87.6164 105° East 468 539 33,000  Level Houston Center
05:58AM 30.5081 -87.4717 104° East 467 537 33,000  Level Houston Center
05:59AM 30.4731 -87.3269 106° East 468 539 33,000  Level Houston Center
06:00AM 30.4325 -87.1783 108° East 465 535 33,000  Level Jacksonville Center
06:01AM 30.3933 -87.0344 107° East 465 535 33,000  Level Jacksonville Center
06:02AM 30.3525 -86.8786 107° East 465 535 33,000 -60 Level Jacksonville Center
06:03AM 30.3108 -86.7375 109° East 465 535 32,900 -60 Descending Jacksonville Center
06:04AM 30.2711 -86.5939 108° East 465 535 32,900  Level Jacksonville Center
06:05AM 30.2314 -86.4506 108° East 465 535 33,000  Climbing Jacksonville Center
06:06AM 30.1936 -86.3075 107° East 465 535 33,000 -60 Level Jacksonville Center
06:07AM 30.1514 -86.1642 109° East 470 541 32,900  Descending Jacksonville Center
06:08AM 30.1133 -86.0236 107° East 465 535 33,000  Climbing Jacksonville Center
06:09AM 30.0728 -85.8856 109° East 465 535 33,000 -60 Level Jacksonville Center
06:10AM 30.0319 -85.7475 109° East 459 528 32,900 -60 Descending Jacksonville Center
06:11AM 29.9894 -85.6000 108° East 468 539 32,900  Level Jacksonville Center
06:12AM 29.9564 -85.4744 107° East 474 545 33,000  Climbing Jacksonville Center
06:13AM 29.9156 -85.3319 108° East 468 539 33,000  Level Jacksonville Center
06:14AM 29.8764 -85.1919 108° East 468 539 33,000  Level Jacksonville Center
06:15AM 29.8369 -85.0522 108° East 468 539 33,000  Level Jacksonville Center
06:16AM 29.7953 -84.9150 109° East 468 539 33,000 -60 Level Jacksonville Center
06:17AM 29.7536 -84.7753 109° East 468 539 32,900 -60 Descending Jacksonville Center
06:18AM 29.7158 -84.6358 107° East 463 533 32,900  Level Jacksonville Center
06:19AM 29.6719 -84.4964 110° East 463 533 33,000  Climbing Jacksonville Center
06:20AM 29.6297 -84.3597 110° East 458 527 33,000  Level Jacksonville Center
06:21AM 29.5894 -84.2206 108° East 458 527 33,000  Level Jacksonville Center
06:22AM 29.5469 -84.0839 110° East 458 527 33,000  Level Jacksonville Center
06:23AM 29.5064 -83.9425 108° East 458 527 33,000  Level Jacksonville Center
06:24AM 29.4636 -83.8036 109° East 458 527 33,000  Level Jacksonville Center
06:25AM 29.4208 -83.6650 109° East 463 533 33,000  Level Jacksonville Center
06:26AM 29.3797 -83.5289 109° East 463 533 33,000 -360 Level Jacksonville Center
06:27AM 29.3364 -83.3928 110° East 463 533 32,300 -900 Descending Jacksonville Center
06:28AM 29.2931 -83.2522 109° East 463 533 31,300 -1,020 Descending Jacksonville Center
06:29AM 29.2517 -83.1139 109° East 463 533 30,300 -1,020 Descending Jacksonville Center
06:30AM 29.2081 -82.9711 109° East 468 539 29,300 -1,020 Descending Jacksonville Center
06:31AM 29.1642 -82.8308 110° East 468 539 28,300 -1,980 Descending Jacksonville Center
06:32AM 29.1181 -82.6739 109° East 468 539 25,400 -3,000 Descending Jacksonville Center
06:33AM 29.0739 -82.5361 110° East 468 539 22,400 -3,000 Descending Jacksonville Center
06:34AM 29.0339 -82.4081 110° East 449 517 19,400 -2,880 Descending Jacksonville Center
06:35AM 28.9936 -82.2825 110° East 433 498 16,700 -2,820 Descending Jacksonville Center
06:36AM 28.9556 -82.1617 110° East 413 475 13,800 -2,280 Descending Jacksonville Center
06:37AM 28.9236 -82.0575 109° East 396 456 12,200 -1,260 Descending Jacksonville Center
06:38AM 28.8936 -81.9606 109° East 357 411 11,300 -720 Descending Jacksonville Center
06:39AM 28.8575 -81.8756 116° Southeast 319 367 10,800 -660 Descending Jacksonville Center
06:40AM 28.8333 -81.8167 115° Southeast 282 325 10,200 -1,020 Descending Orlando TRACON
06:41AM 28.8000 -81.7333 115° Southeast 281 323 9,100 -1,020 Descending Orlando TRACON
06:42AM 28.7667 -81.6500 115° Southeast 273 314 8,200 -960 Descending Orlando TRACON
06:43AM 28.7500 -81.5833 106° East 269 310 7,300 -1,020 Descending Orlando TRACON
06:44AM 28.7167 -81.5000 115° Southeast 272 313 6,300 -720 Descending Orlando TRACON
06:45AM 28.6833 -81.4333 120° Southeast 268 308 5,900 -720 Descending Orlando TRACON
06:46AM 28.6333 -81.3667 131° Southeast 272 313 4,900 -1,500 Descending Orlando TRACON
06:47AM 28.5833 -81.3000 130° Southeast 271 312 2,900 -1,620 Descending Orlando TRACON
06:48AM 28.5167 -81.2833 168° South 216 249 1,700 -1,020 Descending Orlando TRACON
06:49AM 28.4833 -81.3000 204° Southwest 140 161 900 -840 Descending Orlando TRACON